Time;durP1;ratioP1;P1;durP2;ratioP2;P2;SDS_P1;SDS_P2;PMS_P1;PMS_P2;Temp;Humidity;BMP_temperature;BMP_pressure;BME280_temperature;BME280_humidity;BME280_pressure;Samples;Min_cycle;Max_cycle;Signal;HPM_P1;HPM_P2
2021/12/28 00:02:14;;;;;;;28.38;10.57;;;;;;;7.15;100.00;99439.97;4972314;28;20438;-67
2021/12/28 00:04:40;;;;;;;34.50;14.45;;;;;;;7.10;100.00;99421.66;4960469;28;20106;-67
2021/12/28 00:07:05;;;;;;;33.75;11.70;;;;;;;7.14;100.00;99435.59;4961762;28;20372;-67
2021/12/28 00:09:30;;;;;;;39.17;14.43;;;;;;;7.08;100.00;99433.44;4945488;28;20074;-67
2021/12/28 00:11:55;;;;;;;34.50;14.90;;;;;;;6.98;100.00;99426.22;4951581;28;20047;-67
2021/12/28 00:14:23;;;;;;;35.38;12.43;;;;;;;6.85;100.00;99421.06;4942739;28;20035;-67
2021/12/28 00:19:32;;;;;;;40.97;13.10;;;;;;;6.92;100.00;99415.22;4956810;28;20087;-67
2021/12/28 00:21:58;;;;;;;29.80;10.57;;;;;;;6.66;100.00;99421.78;4957989;28;20064;-67
2021/12/28 00:24:23;;;;;;;38.22;14.63;;;;;;;6.86;100.00;99417.44;4959876;28;20479;-67
2021/12/28 00:26:48;;;;;;;34.00;12.93;;;;;;;6.82;100.00;99417.84;4940099;28;20054;-67
2021/12/28 00:29:14;;;;;;;33.97;10.50;;;;;;;6.76;100.00;99421.84;4956177;28;20027;-67
2021/12/28 00:31:39;;;;;;;29.67;9.60;;;;;;;6.68;100.00;99430.50;4962957;28;20023;-67
2021/12/28 00:34:04;;;;;;;39.72;11.25;;;;;;;6.56;100.00;99413.72;4959178;28;20089;-67
2021/12/28 00:36:30;;;;;;;22.13;8.27;;;;;;;6.56;100.00;99435.03;4961386;28;20542;-67
2021/12/28 00:38:56;;;;;;;42.35;14.98;;;;;;;6.72;100.00;99433.78;4942031;28;20755;-67
2021/12/28 00:41:21;;;;;;;28.02;9.40;;;;;;;6.63;100.00;99423.88;4960386;28;20427;-67
2021/12/28 00:43:46;;;;;;;39.58;12.50;;;;;;;6.65;100.00;99420.09;4960358;28;20114;-67
2021/12/28 00:46:12;;;;;;;40.28;12.55;;;;;;;6.64;100.00;99418.41;4957746;28;20034;-67
2021/12/28 00:48:38;;;;;;;30.25;10.05;;;;;;;6.44;100.00;99410.25;4959381;28;20141;-67
2021/12/28 00:51:04;;;;;;;38.78;10.43;;;;;;;6.56;100.00;99410.22;4963168;28;20035;-67
2021/12/28 00:53:30;;;;;;;17.92;6.40;;;;;;;6.38;100.00;99402.75;4960072;28;20057;-67
2021/12/28 00:55:55;;;;;;;23.45;8.32;;;;;;;6.26;100.00;99401.97;4960774;28;20051;-67
2021/12/28 00:58:21;;;;;;;24.60;9.07;;;;;;;6.32;100.00;99402.44;4938261;28;20035;-67
2021/12/28 01:00:47;;;;;;;33.13;10.02;;;;;;;6.28;100.00;99405.34;4943975;28;20482;-67
2021/12/28 01:03:13;;;;;;;27.92;10.13;;;;;;;6.48;100.00;99402.88;4954685;28;20614;-67
2021/12/28 01:05:39;;;;;;;14.90;6.80;;;;;;;6.15;100.00;99381.53;4960432;28;20047;-67
2021/12/28 01:08:05;;;;;;;21.88;7.70;;;;;;;6.20;100.00;99396.31;4958030;28;20031;-67
2021/12/28 01:10:35;;;;;;;38.85;10.60;;;;;;;6.35;100.00;99400.38;4944038;28;20074;-67
2021/12/28 01:13:00;;;;;;;19.02;7.15;;;;;;;6.27;100.00;99389.50;4942270;28;20113;-67
2021/12/28 01:15:27;;;;;;;22.00;7.25;;;;;;;6.17;100.00;99393.88;4959483;28;20041;-67
2021/12/28 01:17:52;;;;;;;21.52;6.95;;;;;;;6.03;100.00;99389.69;4957385;28;20451;-67
2021/12/28 01:20:18;;;;;;;36.53;10.88;;;;;;;6.05;100.00;99380.63;4940770;28;20030;-67
2021/12/28 01:22:45;;;;;;;28.17;9.15;;;;;;;5.88;100.00;99389.09;4961382;28;20027;-67
2021/12/28 01:25:12;;;;;;;42.40;12.35;;;;;;;6.10;100.00;99382.91;4936652;28;20031;-67
2021/12/28 01:27:38;;;;;;;22.30;8.25;;;;;;;5.96;100.00;99390.16;4957877;28;20030;-67
2021/12/28 01:30:06;;;;;;;38.53;9.57;;;;;;;5.95;100.00;99384.97;4959109;28;20050;-67
2021/12/28 01:32:31;;;;;;;27.75;8.57;;;;;;;6.11;100.00;99390.75;4952923;28;20034;-67
2021/12/28 01:34:56;;;;;;;30.83;11.45;;;;;;;6.08;100.00;99390.16;4958950;28;20037;-67
2021/12/28 01:37:22;;;;;;;35.92;9.93;;;;;;;6.04;100.00;99402.03;4943984;28;20065;-67
2021/12/28 01:39:47;;;;;;;42.20;12.02;;;;;;;6.05;100.00;99393.09;4955330;28;20035;-67
2021/12/28 01:42:12;;;;;;;33.80;10.20;;;;;;;6.05;100.00;99385.94;4957976;28;20035;-67
2021/12/28 01:44:38;;;;;;;32.55;10.27;;;;;;;6.10;100.00;99367.75;4941154;28;20034;-67
2021/12/28 01:47:03;;;;;;;34.80;10.77;;;;;;;6.13;100.00;99387.97;4957718;28;20106;-67
2021/12/28 01:49:29;;;;;;;28.50;7.97;;;;;;;6.13;100.00;99379.97;4959298;28;20066;-67
2021/12/28 01:51:55;;;;;;;34.90;9.32;;;;;;;6.13;100.00;99382.66;4955627;28;20037;-67
2021/12/28 01:54:20;;;;;;;38.00;12.23;;;;;;;6.24;100.00;99389.75;4956705;28;20027;-67
2021/12/28 01:56:47;;;;;;;31.80;9.15;;;;;;;6.27;100.00;99386.84;4961939;28;20748;-67
2021/12/28 01:59:15;;;;;;;34.40;9.75;;;;;;;6.34;100.00;99385.34;4958433;28;20045;-67
2021/12/28 02:01:41;;;;;;;37.55;11.23;;;;;;;6.33;100.00;99380.13;4942454;28;20415;-67
2021/12/28 02:04:21;;;;;;;29.88;9.32;;;;;;;6.23;100.00;99378.22;4957253;28;20069;-67
2021/12/28 02:06:48;;;;;;;36.08;12.30;;;;;;;6.35;100.00;99378.19;4955713;28;20055;-67
2021/12/28 02:09:13;;;;;;;38.75;10.07;;;;;;;6.30;100.00;99383.91;4963079;28;20030;-67
2021/12/28 02:11:40;;;;;;;31.20;10.05;;;;;;;6.32;100.00;99384.63;4960197;28;20034;-67
2021/12/28 02:14:07;;;;;;;22.92;7.13;;;;;;;6.02;100.00;99378.22;4958597;28;20027;-67
2021/12/28 02:16:34;;;;;;;51.53;11.85;;;;;;;6.08;100.00;99388.38;4962067;28;20022;-67
2021/12/28 02:19:02;;;;;;;37.25;9.75;;;;;;;6.01;100.00;99389.84;4943166;28;20031;-67
2021/12/28 02:21:31;;;;;;;50.05;12.25;;;;;;;6.21;100.00;99382.00;4957527;28;20029;-67
2021/12/28 02:23:56;;;;;;;32.53;7.97;;;;;;;6.11;100.00;99382.75;4954260;28;20578;-67
2021/12/28 02:26:22;;;;;;;30.55;8.15;;;;;;;6.06;100.00;99384.13;4959861;28;20062;-67
2021/12/28 02:28:47;;;;;;;29.38;8.75;;;;;;;6.03;100.00;99376.38;4959783;28;20031;-67
2021/12/28 02:31:12;;;;;;;14.50;5.15;;;;;;;5.98;100.00;99374.91;4956670;28;20035;-67
2021/12/28 02:33:38;;;;;;;35.17;9.07;;;;;;;5.91;100.00;99371.06;4939217;28;20070;-67
2021/12/28 02:36:04;;;;;;;27.75;7.90;;;;;;;5.81;100.00;99362.97;4954193;28;20032;-67
2021/12/28 02:38:30;;;;;;;43.00;9.88;;;;;;;5.72;100.00;99342.41;4960205;28;20054;-67
2021/12/28 02:40:56;;;;;;;36.42;9.07;;;;;;;5.92;100.00;99359.44;4954961;28;20102;-67
2021/12/28 02:43:22;;;;;;;29.13;8.50;;;;;;;5.84;100.00;99354.72;4966370;28;20042;-67
2021/12/28 02:45:53;;;;;;;44.30;9.98;;;;;;;6.02;100.00;99359.56;4959389;28;20030;-67
2021/12/28 02:48:19;;;;;;;22.58;5.97;;;;;;;5.97;100.00;99361.72;4958815;28;20033;-67
2021/12/28 02:50:48;;;;;;;29.83;7.00;;;;;;;5.94;100.00;99360.16;4960650;28;20407;-67
2021/12/28 02:53:14;;;;;;;32.65;8.13;;;;;;;5.97;100.00;99349.22;4961136;28;20038;-67
2021/12/28 02:55:40;;;;;;;26.92;6.63;;;;;;;5.89;100.00;99335.72;4943243;28;20050;-67
2021/12/28 02:58:09;;;;;;;37.53;8.48;;;;;;;6.06;100.00;99349.47;4957186;28;20026;-67
2021/12/28 03:00:45;;;;;;;22.67;6.18;;;;;;;6.04;100.00;99338.97;4963092;28;20371;-67
2021/12/28 03:03:21;;;;;;;33.80;6.93;;;;;;;6.11;100.00;99328.63;4958653;28;20050;-67
2021/12/28 03:05:49;;;;;;;29.70;7.90;;;;;;;6.15;100.00;99328.22;4961563;28;20062;-67
2021/12/28 03:08:15;;;;;;;21.40;6.47;;;;;;;6.20;100.00;99325.22;4942791;28;20082;-67
2021/12/28 03:10:42;;;;;;;22.10;5.47;;;;;;;6.19;100.00;99318.19;4955107;28;20030;-67
2021/12/28 03:13:09;;;;;;;31.10;7.00;;;;;;;6.13;100.00;99327.50;4954143;28;20046;-67
2021/12/28 03:15:34;;;;;;;35.17;7.82;;;;;;;6.15;100.00;99333.56;4965173;28;20030;-67
2021/12/28 03:18:00;;;;;;;17.73;5.30;;;;;;;6.13;100.00;99324.84;4943170;28;20141;-67
2021/12/28 03:20:25;;;;;;;27.67;6.93;;;;;;;6.05;100.00;99330.00;4960178;28;20035;-67
2021/12/28 03:22:51;;;;;;;31.92;7.78;;;;;;;6.05;100.00;99314.00;4940249;28;20034;-67
2021/12/28 03:25:16;;;;;;;25.88;7.38;;;;;;;5.96;100.00;99309.41;4963427;28;20046;-67
2021/12/28 03:27:43;;;;;;;21.63;7.95;;;;;;;6.15;100.00;99324.75;4941284;28;20152;-67
2021/12/28 03:30:11;;;;;;;26.40;6.80;;;;;;;6.08;100.00;99312.91;4963521;28;20035;-66
2021/12/28 03:32:36;;;;;;;16.52;5.95;;;;;;;6.01;100.00;99315.22;4960202;28;20029;-67
2021/12/28 03:35:03;;;;;;;23.52;5.50;;;;;;;6.24;100.00;99315.94;4960952;28;20034;-67
2021/12/28 03:37:30;;;;;;;28.55;8.13;;;;;;;6.13;100.00;99308.84;4962240;28;20033;-67
2021/12/28 03:39:56;;;;;;;23.17;6.75;;;;;;;6.11;100.00;99300.16;4944705;28;20037;-67
2021/12/28 03:42:21;;;;;;;39.08;6.97;;;;;;;6.21;100.00;99294.91;4958545;28;20035;-67
2021/12/28 03:44:47;;;;;;;25.50;6.75;;;;;;;6.09;100.00;99295.94;4960588;28;20034;-67
2021/12/28 03:47:12;;;;;;;17.70;6.22;;;;;;;5.95;100.00;99276.59;4942180;28;20089;-67
2021/12/28 03:49:37;;;;;;;26.45;6.35;;;;;;;6.05;100.00;99281.16;4958838;28;20031;-67
2021/12/28 03:52:03;;;;;;;27.58;6.53;;;;;;;6.12;100.00;99285.03;4957721;28;20046;-67
2021/12/28 03:54:28;;;;;;;25.80;7.65;;;;;;;6.14;100.00;99267.91;4960633;28;20105;-67
2021/12/28 03:56:56;;;;;;;21.98;5.60;;;;;;;5.92;100.00;99249.34;4961350;28;20415;-67
2021/12/28 03:59:22;;;;;;;20.05;5.43;;;;;;;5.98;100.00;99270.16;4959036;28;20113;-67
2021/12/28 04:01:47;;;;;;;27.27;6.35;;;;;;;5.97;100.00;99277.28;4942654;28;20063;-67
2021/12/28 04:04:12;;;;;;;25.83;6.15;;;;;;;5.87;100.00;99271.06;4941691;28;20595;-67
2021/12/28 04:06:38;;;;;;;19.33;6.43;;;;;;;5.84;100.00;99272.13;4956642;28;20038;-67
2021/12/28 04:09:04;;;;;;;18.83;5.45;;;;;;;5.79;100.00;99273.50;4961750;28;20034;-67
2021/12/28 04:11:29;;;;;;;21.75;6.10;;;;;;;5.85;100.00;99265.00;4947654;28;20531;-67
2021/12/28 04:13:59;;;;;;;19.33;5.93;;;;;;;5.93;100.00;99270.56;4957930;28;20039;-67
2021/12/28 04:16:25;;;;;;;26.60;5.50;;;;;;;6.06;100.00;99269.53;4963424;28;20547;-67
2021/12/28 04:18:51;;;;;;;22.85;6.38;;;;;;;5.96;100.00;99272.94;4927575;28;20038;-67
2021/12/28 04:21:17;;;;;;;31.92;6.68;;;;;;;6.02;100.00;99260.97;4948318;28;20027;-67
2021/12/28 04:23:42;;;;;;;21.08;6.00;;;;;;;6.07;100.00;99266.75;4958654;28;20483;-67
2021/12/28 04:26:07;;;;;;;21.70;6.45;;;;;;;6.24;100.00;99264.47;4945495;28;20049;-67
2021/12/28 04:28:33;;;;;;;30.63;6.13;;;;;;;6.26;100.00;99270.53;4941791;28;20091;-67
2021/12/28 04:30:58;;;;;;;30.05;7.10;;;;;;;6.23;100.00;99266.28;4944001;28;20145;-67
2021/12/28 04:33:24;;;;;;;32.78;7.50;;;;;;;6.31;100.00;99260.31;4959441;28;20470;-67
2021/12/28 04:35:49;;;;;;;36.88;7.20;;;;;;;6.40;100.00;99254.19;4956883;28;20439;-67
2021/12/28 04:38:15;;;;;;;29.38;6.20;;;;;;;6.42;100.00;99262.91;4960266;28;20073;-67
2021/12/28 04:40:40;;;;;;;21.52;5.63;;;;;;;6.44;100.00;99257.44;4960953;28;20034;-67
2021/12/28 04:43:07;;;;;;;37.85;8.60;;;;;;;6.55;100.00;99264.53;4957425;28;20133;-66
2021/12/28 04:45:33;;;;;;;25.38;5.40;;;;;;;6.54;100.00;99265.50;4958451;28;20034;-67
2021/12/28 04:47:58;;;;;;;25.55;6.10;;;;;;;6.51;100.00;99263.09;4939021;28;20031;-67
2021/12/28 04:50:24;;;;;;;21.83;5.20;;;;;;;6.51;100.00;99263.94;4942683;28;20034;-67
2021/12/28 04:52:49;;;;;;;29.63;5.57;;;;;;;6.48;100.00;99271.34;4957558;28;20526;-67
2021/12/28 04:55:17;;;;;;;20.13;4.75;;;;;;;6.56;100.00;99260.88;4944257;28;20254;-67
2021/12/28 04:57:44;;;;;;;26.05;6.07;;;;;;;6.69;100.00;99266.00;4960523;28;20019;-67
2021/12/28 05:00:15;;;;;;;21.42;5.28;;;;;;;6.62;100.00;99273.69;4958805;28;20097;-67
2021/12/28 05:02:40;;;;;;;23.63;5.47;;;;;;;6.70;100.00;99267.69;4960454;28;20031;-67
2021/12/28 05:05:06;;;;;;;24.35;6.55;;;;;;;6.50;100.00;99235.56;4941386;28;20046;-67
2021/12/28 05:07:31;;;;;;;19.52;5.45;;;;;;;6.75;100.00;99260.13;4944799;28;20042;-67
2021/12/28 05:09:58;;;;;;;24.80;4.47;;;;;;;6.80;100.00;99260.56;4961259;28;20039;-67
2021/12/28 05:12:25;;;;;;;26.40;5.57;;;;;;;6.83;100.00;99251.47;4940058;28;20231;-67
2021/12/28 05:14:50;;;;;;;29.45;6.15;;;;;;;6.92;100.00;99245.28;4954376;28;20030;-67
2021/12/28 05:17:15;;;;;;;30.80;5.78;;;;;;;6.88;100.00;99249.25;4943805;28;20026;-67
2021/12/28 05:19:41;;;;;;;24.80;5.15;;;;;;;7.00;100.00;99240.13;4957504;28;20077;-67
2021/12/28 05:22:08;;;;;;;28.25;4.95;;;;;;;7.05;100.00;99240.56;4959011;28;20031;-67
2021/12/28 05:24:35;;;;;;;26.73;4.47;;;;;;;7.13;100.00;99234.53;4957756;28;20073;-67
2021/12/28 05:27:00;;;;;;;36.00;6.95;;;;;;;7.29;100.00;99230.50;4961808;28;20031;-66
2021/12/28 05:29:25;;;;;;;38.92;7.03;;;;;;;7.44;100.00;99233.59;4956365;28;20038;-67
2021/12/28 05:31:51;;;;;;;31.60;5.40;;;;;;;7.19;100.00;99225.13;4958898;28;20443;-67
2021/12/28 05:34:16;;;;;;;28.77;5.53;;;;;;;7.14;100.00;99216.72;4958010;28;20065;-67
2021/12/28 05:36:41;;;;;;;21.70;5.47;;;;;;;7.24;100.00;99206.88;4960130;28;20129;-67
2021/12/28 05:39:07;;;;;;;34.00;6.10;;;;;;;7.33;100.00;99195.38;4951480;28;20444;-66
2021/12/28 05:41:32;;;;;;;17.60;4.90;;;;;;;7.39;100.00;99226.03;4928933;28;20043;-67
2021/12/28 05:43:57;;;;;;;33.17;5.45;;;;;;;7.58;100.00;99222.53;4938981;28;20158;-67
2021/12/28 05:46:23;;;;;;;22.88;4.25;;;;;;;7.68;100.00;99229.72;4963398;28;20062;-67
2021/12/28 05:48:48;;;;;;;23.15;4.80;;;;;;;7.63;100.00;99225.63;4956104;28;20126;-67
2021/12/28 05:51:14;;;;;;;21.98;3.95;;;;;;;7.59;100.00;99216.22;4938901;28;20050;-67
2021/12/28 05:53:40;;;;;;;24.65;5.00;;;;;;;7.54;100.00;99209.59;4956144;28;20030;-66
2021/12/28 05:56:05;;;;;;;33.88;6.50;;;;;;;7.83;100.00;99222.94;4959263;28;20564;-67
2021/12/28 05:58:30;;;;;;;27.13;5.85;;;;;;;7.71;100.00;99211.56;4957306;28;20098;-67
2021/12/28 06:00:56;;;;;;;32.03;5.57;;;;;;;7.72;100.00;99207.91;4953384;28;20027;-67
2021/12/28 06:03:21;;;;;;;25.08;5.28;;;;;;;7.78;100.00;99211.84;4958899;28;20031;-67
2021/12/28 06:05:47;;;;;;;24.30;5.35;;;;;;;7.68;100.00;99197.66;4941099;28;20141;-67
2021/12/28 06:08:12;;;;;;;18.50;3.53;;;;;;;7.67;100.00;99198.63;4958382;28;20062;-67
2021/12/28 06:10:37;;;;;;;13.98;3.63;;;;;;;7.69;100.00;99202.00;4958266;28;20841;-68
2021/12/28 06:13:03;;;;;;;31.08;5.40;;;;;;;7.75;100.00;99193.41;4940371;28;20114;-67
2021/12/28 06:15:28;;;;;;;20.83;4.72;;;;;;;7.84;100.00;99195.25;4941752;28;20098;-67
2021/12/28 06:17:53;;;;;;;21.35;4.07;;;;;;;7.77;100.00;99208.34;4943326;28;20078;-68
2021/12/28 06:20:19;;;;;;;23.65;5.00;;;;;;;7.84;100.00;99199.72;4961156;28;20364;-67
2021/12/28 06:22:44;;;;;;;31.50;5.38;;;;;;;7.94;100.00;99205.91;4964001;28;20074;-67
2021/12/28 06:25:09;;;;;;;22.73;4.15;;;;;;;7.71;100.00;99195.53;4962514;28;20030;-67
2021/12/28 06:27:35;;;;;;;21.88;4.18;;;;;;;7.82;100.00;99191.88;4965234;28;20034;-67
2021/12/28 06:30:00;;;;;;;21.30;4.30;;;;;;;7.70;100.00;99185.84;4961061;28;20118;-67
2021/12/28 06:32:25;;;;;;;24.88;4.95;;;;;;;7.71;100.00;99192.88;4948870;28;20456;-67
2021/12/28 06:34:51;;;;;;;25.42;4.60;;;;;;;7.79;100.00;99189.47;4961889;28;20130;-67
2021/12/28 06:37:16;;;;;;;14.50;4.10;;;;;;;7.79;100.00;99198.34;4963406;28;20023;-67
2021/12/28 06:39:41;;;;;;;18.05;3.70;;;;;;;7.63;100.00;99195.38;4960869;28;20055;-67
2021/12/28 06:42:07;;;;;;;20.55;3.95;;;;;;;7.74;100.00;99203.28;4961384;28;20046;-67
2021/12/28 06:44:32;;;;;;;21.15;4.63;;;;;;;7.69;100.00;99192.16;4943807;28;20030;-68
2021/12/28 06:46:58;;;;;;;23.60;5.28;;;;;;;7.69;100.00;99180.63;4962793;28;20135;-67
2021/12/28 06:49:23;;;;;;;16.13;5.40;;;;;;;7.77;100.00;99186.09;4961157;28;20145;-67
2021/12/28 06:51:48;;;;;;;21.88;5.13;;;;;;;7.87;100.00;99197.63;4962730;28;20031;-67
2021/12/28 06:54:14;;;;;;;25.42;4.72;;;;;;;7.83;100.00;99185.53;4959078;28;20057;-67
2021/12/28 06:56:40;;;;;;;22.23;4.68;;;;;;;7.98;100.00;99180.59;4964438;28;20023;-67
2021/12/28 06:59:05;;;;;;;25.42;4.55;;;;;;;7.88;100.00;99164.59;4960708;28;20122;-67
2021/12/28 07:01:30;;;;;;;20.05;4.40;;;;;;;7.83;100.00;99174.00;4958982;28;20041;-67
2021/12/28 07:03:56;;;;;;;24.80;4.40;;;;;;;7.72;100.00;99162.50;4958050;28;20421;-67
2021/12/28 07:06:24;;;;;;;24.08;4.53;;;;;;;7.72;100.00;99166.97;4961378;28;20526;-67
2021/12/28 07:08:49;;;;;;;14.55;2.75;;;;;;;7.66;100.00;99160.38;4962850;28;20037;-67
2021/12/28 07:11:15;;;;;;;21.70;4.47;;;;;;;7.73;100.00;99156.16;4958813;28;20058;-67
2021/12/28 07:13:41;;;;;;;15.13;2.90;;;;;;;7.47;100.00;99159.41;4962105;28;20026;-67
2021/12/28 07:16:06;;;;;;;26.33;4.07;;;;;;;7.71;100.00;99165.28;4960540;28;20129;-67
2021/12/28 07:18:31;;;;;;;14.00;3.60;;;;;;;7.88;100.00;99171.75;4962810;28;20031;-67
2021/12/28 07:20:58;;;;;;;25.23;4.40;;;;;;;7.88;100.00;99164.59;4961692;28;20034;-67
2021/12/28 07:23:24;;;;;;;21.10;3.55;;;;;;;7.84;100.00;99151.63;4963452;28;20042;-67
2021/12/28 07:25:53;;;;;;;21.83;5.28;;;;;;;7.81;100.00;99148.25;4961450;28;20023;-67
2021/12/28 07:28:18;;;;;;;20.80;4.65;;;;;;;7.76;100.00;99155.03;4960236;28;20098;-67
2021/12/28 07:30:43;;;;;;;17.17;3.88;;;;;;;7.74;100.00;99154.31;4962924;28;20470;-66
2021/12/28 07:33:09;;;;;;;16.75;4.40;;;;;;;7.75;100.00;99162.22;4942234;28;20069;-67
2021/12/28 07:35:34;;;;;;;25.23;4.20;;;;;;;7.84;100.00;99165.00;4941472;28;20026;-67
2021/12/28 07:37:59;;;;;;;15.85;4.20;;;;;;;7.76;100.00;99149.69;4961964;28;20389;-67
2021/12/28 07:40:25;;;;;;;20.10;5.05;;;;;;;7.97;100.00;99160.19;4943155;28;20058;-67
2021/12/28 07:42:50;;;;;;;23.98;4.80;;;;;;;7.90;100.00;99162.63;4963665;28;20403;-68
2021/12/28 07:45:15;;;;;;;17.02;4.35;;;;;;;8.03;100.00;99164.13;4954961;28;20786;-67
2021/12/28 07:47:42;;;;;;;15.48;4.10;;;;;;;8.08;100.00;99153.84;4962827;28;20058;-67
2021/12/28 07:50:09;;;;;;;14.05;3.83;;;;;;;8.00;100.00;99151.03;4943235;28;20035;-67
2021/12/28 07:52:35;;;;;;;20.38;4.60;;;;;;;8.12;100.00;99157.91;4960207;28;20066;-67
2021/12/28 07:55:01;;;;;;;13.75;4.32;;;;;;;8.19;100.00;99156.34;4961911;28;20070;-67
2021/12/28 07:57:26;;;;;;;15.98;4.18;;;;;;;8.12;100.00;99147.22;4966340;28;20061;-67
2021/12/28 07:59:52;;;;;;;25.42;4.63;;;;;;;8.14;100.00;99147.06;4962353;28;20463;-67
2021/12/28 08:02:17;;;;;;;8.93;2.67;;;;;;;8.00;100.00;99145.69;4959935;28;20030;-67
2021/12/28 08:04:42;;;;;;;8.77;2.85;;;;;;;7.98;100.00;99155.69;4961882;28;20054;-67
2021/12/28 08:07:07;;;;;;;22.27;5.75;;;;;;;8.13;100.00;99151.59;4960757;28;20117;-67
2021/12/28 08:09:33;;;;;;;19.58;4.63;;;;;;;8.07;100.00;99141.47;4961020;28;20065;-66
2021/12/28 08:11:58;;;;;;;17.95;5.28;;;;;;;8.34;100.00;99142.50;4949380;28;20371;-66
2021/12/28 08:14:23;;;;;;;17.67;5.95;;;;;;;8.43;100.00;99146.13;4966249;28;20030;-67
2021/12/28 08:16:49;;;;;;;21.63;5.40;;;;;;;8.36;100.00;99146.69;4965987;28;20041;-67
2021/12/28 08:19:14;;;;;;;15.05;3.92;;;;;;;8.25;100.00;99145.06;4955092;28;20035;-68
2021/12/28 08:21:40;;;;;;;12.35;3.42;;;;;;;7.88;100.00;99137.88;4942080;28;21068;-69
2021/12/28 08:24:05;;;;;;;18.40;4.95;;;;;;;8.41;100.00;99140.94;4956854;28;20393;-68
2021/12/28 08:26:30;;;;;;;14.93;3.60;;;;;;;8.22;100.00;99150.69;4943263;28;20038;-68
2021/12/28 08:28:56;;;;;;;16.45;5.57;;;;;;;8.45;100.00;99146.81;4957263;28;20056;-68
2021/12/28 08:31:21;;;;;;;11.15;3.80;;;;;;;8.33;100.00;99139.00;4967501;28;20048;-67
2021/12/28 08:33:46;;;;;;;17.15;5.97;;;;;;;8.51;100.00;99144.41;4957063;28;20034;-67
2021/12/28 08:36:12;;;;;;;17.45;5.20;;;;;;;8.13;100.00;99138.22;4960290;28;20106;-69
2021/12/28 08:38:39;;;;;;;22.33;6.53;;;;;;;8.50;100.00;99139.22;4958229;28;20070;-66
2021/12/28 08:41:05;;;;;;;9.80;3.30;;;;;;;8.21;100.00;99132.97;4959918;28;20039;-67
2021/12/28 08:43:30;;;;;;;13.38;5.07;;;;;;;8.22;100.00;99121.28;4955740;28;20439;-68
2021/12/28 08:45:56;;;;;;;16.58;4.90;;;;;;;8.26;100.00;99124.53;4965706;28;20031;-67
2021/12/28 08:48:21;;;;;;;21.95;6.57;;;;;;;8.20;100.00;99106.38;4960934;28;20035;-68
2021/12/28 08:50:47;;;;;;;19.83;5.63;;;;;;;8.17;100.00;99117.38;4956953;28;20371;-67
2021/12/28 08:53:12;;;;;;;11.23;3.53;;;;;;;8.15;100.00;99122.88;4956620;28;20134;-68
2021/12/28 08:55:39;;;;;;;13.82;6.00;;;;;;;8.36;100.00;99119.13;4937750;28;20058;-67
2021/12/28 08:58:04;;;;;;;12.02;5.25;;;;;;;7.94;100.00;99101.69;4956519;28;20034;-67
2021/12/28 09:00:32;;;;;;;17.30;7.25;;;;;;;8.40;100.00;99118.69;4958439;28;20027;-67
2021/12/28 09:02:58;;;;;;;13.60;6.18;;;;;;;8.25;100.00;99118.31;4958917;28;20073;-67
2021/12/28 09:05:25;;;;;;;15.90;9.23;;;;;;;8.58;100.00;99106.38;4957283;28;20046;-67
2021/12/28 09:07:51;;;;;;;13.50;5.15;;;;;;;8.10;100.00;99111.78;4957151;28;20611;-70
2021/12/28 09:10:16;;;;;;;19.52;8.18;;;;;;;8.42;100.00;99099.81;4947285;28;20086;-68
2021/12/28 09:12:42;;;;;;;14.70;5.65;;;;;;;8.22;100.00;99110.59;4959094;28;20075;-69
2021/12/28 09:15:09;;;;;;;15.18;9.00;;;;;;;8.44;100.00;99105.00;4947459;28;20023;-67
2021/12/28 09:17:34;;;;;;;16.05;8.70;;;;;;;8.40;100.00;99097.28;4959786;28;20323;-67
2021/12/28 09:20:02;;;;;;;13.30;7.70;;;;;;;8.45;100.00;99110.22;4958119;28;20226;-66
2021/12/28 09:22:27;;;;;;;20.88;7.10;;;;;;;8.51;100.00;99106.97;4958446;28;20116;-68
2021/12/28 09:24:53;;;;;;;12.73;7.35;;;;;;;8.35;100.00;99086.19;4953883;28;20486;-66
2021/12/28 09:27:18;;;;;;;9.20;4.80;;;;;;;8.50;100.00;99093.75;4939455;28;20039;-66
2021/12/28 09:29:44;;;;;;;19.92;8.40;;;;;;;8.54;100.00;99101.31;4936552;28;20054;-67
2021/12/28 09:32:10;;;;;;;18.98;9.48;;;;;;;8.64;100.00;99090.56;4955159;28;20115;-66
2021/12/28 09:34:35;;;;;;;19.52;10.75;;;;;;;8.73;100.00;99082.63;4938823;28;20030;-66
2021/12/28 09:37:00;;;;;;;10.65;6.38;;;;;;;8.57;100.00;99089.50;4937975;28;20125;-67
2021/12/28 09:39:28;;;;;;;16.55;7.88;;;;;;;8.57;100.00;99086.81;4939410;28;20538;-67
2021/12/28 09:41:56;;;;;;;16.40;7.28;;;;;;;8.69;100.00;99082.09;4936900;28;20034;-67
2021/12/28 09:44:21;;;;;;;20.48;9.60;;;;;;;8.45;100.00;99087.97;4935861;28;20549;-67
2021/12/28 09:46:47;;;;;;;18.10;11.20;;;;;;;8.62;100.00;99081.84;4955496;28;20146;-66
2021/12/28 09:49:12;;;;;;;8.43;5.53;;;;;;;8.46;100.00;99087.84;4954228;28;20027;-68
2021/12/28 09:51:38;;;;;;;18.77;8.40;;;;;;;8.67;100.00;99092.94;4931282;28;20475;-67
2021/12/28 09:54:03;;;;;;;17.38;9.57;;;;;;;8.79;100.00;99071.34;4953994;28;20031;-66
2021/12/28 09:56:29;;;;;;;13.60;8.40;;;;;;;8.68;100.00;99077.75;4953668;28;20110;-67
2021/12/28 09:58:54;;;;;;;20.95;10.80;;;;;;;8.80;100.00;99063.16;4953020;28;20076;-67
2021/12/28 10:01:20;;;;;;;17.77;9.75;;;;;;;8.95;100.00;99074.16;4953224;28;20423;-66
2021/12/28 10:03:46;;;;;;;14.10;8.95;;;;;;;8.86;100.00;99075.09;4949666;28;20035;-66
2021/12/28 10:06:25;;;;;;;12.50;6.90;;;;;;;8.67;100.00;99065.34;4933796;28;20535;-67
2021/12/28 10:09:13;;;;;;;16.05;10.38;;;;;;;8.95;100.00;99063.47;4949855;28;20042;-65
2021/12/28 10:11:42;;;;;;;14.80;9.80;;;;;;;9.13;100.00;99047.41;4952461;28;20035;-66
2021/12/28 10:14:18;;;;;;;17.65;8.35;;;;;;;9.06;100.00;99058.88;4954036;28;20066;-65
2021/12/28 10:16:56;;;;;;;15.88;7.10;;;;;;;8.91;100.00;99046.00;4941875;28;20094;-66
2021/12/28 10:19:31;;;;;;;15.13;9.07;;;;;;;9.01;100.00;99037.91;4955377;28;20480;-65
2021/12/28 10:21:56;;;;;;;12.65;7.90;;;;;;;8.94;100.00;99031.50;4961650;28;20035;-67
2021/12/28 10:24:32;;;;;;;11.45;8.20;;;;;;;9.20;100.00;99018.16;4950977;28;20472;-67
2021/12/28 10:27:10;;;;;;;10.07;7.45;;;;;;;9.42;100.00;99032.91;4952342;28;20029;-65
2021/12/28 10:29:36;;;;;;;10.73;6.05;;;;;;;9.30;100.00;99034.97;4956006;28;20039;-67
2021/12/28 10:32:21;;;;;;;7.60;4.82;;;;;;;9.14;100.00;99016.94;4935783;28;20039;-67
2021/12/28 10:34:56;;;;;;;8.65;5.22;;;;;;;9.11;100.00;99024.47;4934666;28;20115;-67
2021/12/28 10:37:24;;;;;;;9.65;7.20;;;;;;;9.41;100.00;99011.59;4952674;28;20034;-66
2021/12/28 10:39:54;;;;;;;10.38;8.00;;;;;;;9.44;100.00;99008.63;4954155;28;20026;-66
2021/12/28 10:42:43;;;;;;;8.23;6.68;;;;;;;9.47;100.00;99008.31;4949826;28;20487;-65
2021/12/28 10:50:36;;;;;;;10.98;7.20;;;;;;;9.31;100.00;98971.53;4961934;28;20050;-68
2021/12/28 10:53:18;;;;;;;8.50;7.32;;;;;;;9.34;100.00;98954.34;4961647;28;20086;-68
2021/12/28 10:55:45;;;;;;;7.55;6.55;;;;;;;9.33;100.00;98969.53;4952007;28;20466;-69
2021/12/28 10:58:20;;;;;;;7.72;5.22;;;;;;;9.21;100.00;98979.66;4972875;28;20074;-68
2021/12/28 11:00:46;;;;;;;9.20;5.78;;;;;;;9.26;100.00;98976.53;4971655;28;20033;-67
2021/12/28 11:03:14;;;;;;;9.57;7.47;;;;;;;9.46;100.00;98979.84;4960319;28;20042;-70
2021/12/28 11:05:41;;;;;;;8.98;7.35;;;;;;;9.71;100.00;98963.88;4977589;28;20034;-68
2021/12/28 11:08:09;;;;;;;7.57;6.78;;;;;;;9.62;100.00;98964.88;4980278;28;20034;-68
2021/12/28 11:10:48;;;;;;;7.72;3.90;;;;;;;9.48;100.00;98964.44;4981191;28;20474;-69
2021/12/28 11:13:15;;;;;;;7.22;6.45;;;;;;;9.72;100.00;98960.22;4960782;28;20117;-69
2021/12/28 11:15:46;;;;;;;6.93;5.65;;;;;;;9.81;100.00;98951.22;4957590;28;20476;-67
2021/12/28 11:18:30;;;;;;;6.93;6.22;;;;;;;9.53;100.00;98940.69;4961114;28;20026;-68
2021/12/28 11:20:56;;;;;;;7.05;5.97;;;;;;;9.74;100.00;98947.50;4958921;28;20034;-68
2021/12/28 11:23:24;;;;;;;6.32;4.97;;;;;;;9.69;100.00;98939.94;4960158;28;20034;-69
2021/12/28 11:26:10;;;;;;;5.72;4.47;;;;;;;9.43;100.00;98948.00;4977037;28;20022;-69
2021/12/28 11:28:37;;;;;;;7.05;4.80;;;;;;;9.27;100.00;98928.19;4975608;28;21588;-67
2021/12/28 11:31:13;;;;;;;9.05;7.03;;;;;;;9.72;100.00;98928.91;4977471;28;20030;-67